Time;durP1;ratioP1;P1;durP2;ratioP2;P2;SDS_P1;SDS_P2;PMS_P1;PMS_P2;Temp;Humidity;BMP_temperature;BMP_pressure;BME280_temperature;BME280_humidity;BME280_pressure;Samples;Min_cycle;Max_cycle;Signal;HPM_P1;HPM_P2
2022/10/02 00:02:29;;;;;;;8.50;3.45;;;;;;;14.72;97.73;98579.25;1679901;85;21110;-78
2022/10/02 00:05:29;;;;;;;5.78;3.37;;;;;;;14.73;97.67;98571.69;1680634;85;21554;-76
2022/10/02 00:08:26;;;;;;;5.97;3.58;;;;;;;14.73;97.68;98567.72;1681514;85;21151;-78
2022/10/02 00:11:03;;;;;;;9.25;3.58;;;;;;;14.73;97.68;98572.17;1680815;85;21066;-77
2022/10/02 00:13:49;;;;;;;5.47;3.80;;;;;;;14.74;97.79;98572.53;1681301;85;21160;-77
2022/10/02 00:16:33;;;;;;;5.42;3.30;;;;;;;14.74;97.80;98566.75;1681216;84;22056;-76
2022/10/02 00:18:59;;;;;;;3.52;3.22;;;;;;;14.75;97.55;98545.95;1681470;85;21550;-77
2022/10/02 00:21:34;;;;;;;5.00;3.30;;;;;;;14.78;97.24;98531.67;1681055;84;21011;-77
2022/10/02 00:24:02;;;;;;;3.67;3.42;;;;;;;14.79;97.05;98512.16;1681255;84;21118;-77
2022/10/02 00:26:58;;;;;;;6.65;3.62;;;;;;;14.77;97.00;98512.27;1681072;84;21311;-77
2022/10/02 00:29:52;;;;;;;3.80;3.20;;;;;;;14.75;96.99;98518.15;1681455;84;21625;-77
2022/10/02 00:32:58;;;;;;;5.95;3.75;;;;;;;14.73;97.00;98508.63;1681240;84;21014;-77
2022/10/02 00:35:46;;;;;;;6.50;3.90;;;;;;;14.70;97.14;98505.70;1681421;85;21114;-77
2022/10/02 00:38:36;;;;;;;5.20;3.50;;;;;;;14.66;97.19;98509.52;1680983;85;21090;-77
2022/10/02 00:41:40;;;;;;;3.87;3.58;;;;;;;14.64;97.28;98488.44;1681167;85;21073;-76
2022/10/02 00:44:44;;;;;;;5.72;3.70;;;;;;;14.65;97.38;98480.02;1681155;85;21615;-77
2022/10/02 00:47:27;;;;;;;3.65;3.33;;;;;;;14.63;97.33;98473.98;1681043;85;21085;-78
2022/10/02 00:50:23;;;;;;;6.08;3.05;;;;;;;14.62;97.48;98478.89;1681396;85;21031;-78
2022/10/02 00:53:29;;;;;;;4.55;3.10;;;;;;;14.64;97.50;98472.55;1681172;85;21094;-77
2022/10/02 00:56:06;;;;;;;3.30;3.08;;;;;;;14.65;97.27;98465.45;1683566;85;24122;-78
2022/10/02 00:59:03;;;;;;;3.55;3.12;;;;;;;14.64;97.27;98459.77;1657963;85;21046;-78
2022/10/02 01:01:54;;;;;;;3.33;3.12;;;;;;;14.63;97.00;98454.13;1680986;84;21086;-77
2022/10/02 01:04:32;;;;;;;4.37;3.33;;;;;;;14.64;96.81;98447.86;1680953;85;21042;-76
2022/10/02 01:06:59;;;;;;;4.28;3.12;;;;;;;14.63;96.64;98452.80;1681395;85;21122;-77
2022/10/02 01:09:25;;;;;;;3.60;2.95;;;;;;;14.63;96.50;98444.86;1681237;85;21837;-76
2022/10/02 01:11:52;;;;;;;5.37;3.00;;;;;;;14.61;96.46;98442.80;1681274;84;21025;-77
2022/10/02 01:14:18;;;;;;;11.45;3.87;;;;;;;14.58;96.42;98437.20;1681067;84;21011;-78
2022/10/02 01:16:45;;;;;;;7.60;3.12;;;;;;;14.54;96.50;98434.85;1681421;84;21036;-76
2022/10/02 01:19:37;;;;;;;3.27;2.95;;;;;;;14.50;96.57;98438.19;1681166;85;21146;-77
2022/10/02 01:22:38;;;;;;;3.02;2.72;;;;;;;14.46;96.68;98430.94;1679923;85;21221;-76
2022/10/02 01:25:05;;;;;;;4.75;2.85;;;;;;;14.43;96.71;98424.52;1693015;84;21122;-77
2022/10/02 01:27:33;;;;;;;3.37;3.08;;;;;;;14.37;96.93;98411.70;1696338;84;21508;-77
2022/10/02 01:30:13;;;;;;;4.92;2.72;;;;;;;14.33;97.11;98412.88;1696698;84;21094;-76
2022/10/02 01:32:45;;;;;;;4.35;2.60;;;;;;;14.28;97.31;98408.37;1696171;84;21077;-76
2022/10/02 01:35:12;;;;;;;5.22;3.02;;;;;;;14.26;97.58;98391.76;1696593;83;21612;-75
2022/10/02 01:37:41;;;;;;;2.65;2.42;;;;;;;14.21;97.89;98388.58;1696629;84;21080;-76
2022/10/02 01:40:12;;;;;;;2.77;2.58;;;;;;;14.16;98.08;98382.75;1696422;84;21105;-77
2022/10/02 01:42:39;;;;;;;2.77;2.58;;;;;;;14.12;98.29;98371.05;1696405;84;21125;-76
2022/10/02 01:45:07;;;;;;;3.45;2.42;;;;;;;14.11;98.44;98365.38;1696636;84;21623;-77
2022/10/02 01:47:52;;;;;;;2.62;2.40;;;;;;;14.06;98.60;98364.84;1696748;84;21120;-77
2022/10/02 01:50:30;;;;;;;3.27;2.83;;;;;;;14.03;98.88;98358.44;1696210;84;21061;-75
2022/10/02 01:53:04;;;;;;;3.20;2.90;;;;;;;14.02;99.08;98363.37;1696858;84;21576;-75
2022/10/02 01:55:51;;;;;;;5.12;2.50;;;;;;;14.01;99.23;98357.70;1696748;84;21101;-76
2022/10/02 01:58:32;;;;;;;3.83;2.60;;;;;;;14.00;99.41;98357.31;1696663;84;21117;-77
2022/10/02 02:01:16;;;;;;;4.75;2.67;;;;;;;14.00;99.46;98356.47;1695045;84;21136;-77
2022/10/02 02:04:03;;;;;;;5.75;2.60;;;;;;;13.97;99.49;98348.74;1696302;84;21419;-77
2022/10/02 02:06:39;;;;;;;3.37;2.52;;;;;;;13.96;99.47;98346.58;1696628;84;21101;-77
2022/10/02 02:09:11;;;;;;;4.87;2.20;;;;;;;13.97;99.45;98343.45;1696591;84;21148;-76
2022/10/02 02:11:50;;;;;;;8.80;2.70;;;;;;;13.95;99.42;98332.97;1696642;84;21018;-76
2022/10/02 02:14:25;;;;;;;6.90;2.50;;;;;;;13.94;99.36;98336.10;1696267;84;21656;-77
2022/10/02 02:16:55;;;;;;;2.17;1.98;;;;;;;13.94;99.36;98323.37;1696068;84;22019;-77
2022/10/02 02:19:45;;;;;;;4.55;2.00;;;;;;;13.93;99.28;98313.73;1696428;84;21105;-76
2022/10/02 02:22:17;;;;;;;3.95;2.20;;;;;;;13.89;99.41;98299.03;1696167;84;20999;-76
2022/10/02 02:24:55;;;;;;;2.40;2.00;;;;;;;13.89;99.27;98293.75;1697647;84;21628;-76
2022/10/02 02:27:26;;;;;;;4.05;2.20;;;;;;;13.89;99.13;98283.17;1698455;84;21803;-77
2022/10/02 02:29:56;;;;;;;2.58;1.98;;;;;;;13.89;99.01;98280.53;1698595;84;22421;-77
2022/10/02 02:32:26;;;;;;;4.22;1.90;;;;;;;13.87;98.99;98279.77;1698831;84;21041;-76
2022/10/02 02:35:06;;;;;;;3.87;2.10;;;;;;;13.85;99.09;98271.09;1698876;84;21081;-77
2022/10/02 02:37:34;;;;;;;3.35;1.92;;;;;;;13.85;99.10;98263.16;1698930;84;21134;-77
2022/10/02 02:40:11;;;;;;;2.10;1.80;;;;;;;13.87;99.10;98245.39;1698724;84;21232;-77
2022/10/02 02:42:55;;;;;;;4.55;2.20;;;;;;;13.88;99.08;98244.45;1667130;84;21102;-77
2022/10/02 02:45:25;;;;;;;3.05;2.12;;;;;;;13.87;98.99;98223.78;1699174;84;22213;-76
2022/10/02 02:47:55;;;;;;;2.55;1.90;;;;;;;13.87;98.99;98223.78;1698557;84;21097;-77
2022/10/02 02:50:32;;;;;;;3.85;2.33;;;;;;;13.85;99.15;98216.89;1698575;84;21128;-77
2022/10/02 02:53:13;;;;;;;2.65;1.90;;;;;;;13.83;99.35;98216.16;1698736;84;21662;-77
2022/10/02 02:55:55;;;;;;;13.28;2.47;;;;;;;13.82;99.47;98206.07;1698620;84;21139;-76
2022/10/02 02:58:33;;;;;;;6.58;1.90;;;;;;;13.81;99.51;98212.30;1698490;84;21027;-76
2022/10/02 03:00:59;;;;;;;5.80;2.30;;;;;;;13.82;99.61;98210.48;1698771;84;21006;-76
2022/10/02 03:03:26;;;;;;;2.62;2.37;;;;;;;13.84;99.63;98202.84;1698538;84;21030;-76
2022/10/02 03:06:20;;;;;;;4.12;2.98;;;;;;;13.84;99.63;98194.07;1698961;84;21132;-77
2022/10/02 03:08:46;;;;;;;7.17;2.45;;;;;;;13.85;99.69;98189.13;1698179;84;21117;-77
2022/10/02 03:11:42;;;;;;;4.28;2.90;;;;;;;13.87;99.66;98187.22;1698662;84;21093;-76
2022/10/02 03:14:46;;;;;;;6.85;2.90;;;;;;;13.87;99.71;98184.58;1698642;84;21014;-78
2022/10/02 03:17:48;;;;;;;5.72;2.98;;;;;;;13.84;99.71;98180.85;1698536;84;21726;-77
2022/10/02 03:20:41;;;;;;;4.50;2.62;;;;;;;13.83;99.75;98170.73;1688065;84;21150;-75
2022/10/02 03:23:31;;;;;;;6.35;3.33;;;;;;;13.81;99.82;98167.36;1698828;84;21176;-77
2022/10/02 03:26:18;;;;;;;4.78;3.75;;;;;;;13.82;99.90;98162.91;1683196;84;21038;-77
2022/10/02 03:28:53;;;;;;;4.62;2.92;;;;;;;13.81;99.91;98155.95;1681073;85;21034;-77
2022/10/02 03:31:20;;;;;;;3.83;2.58;;;;;;;13.82;99.94;98152.33;1680959;85;22998;-78
2022/10/02 03:33:47;;;;;;;5.62;2.70;;;;;;;13.82;99.99;98157.61;1681198;85;21851;-77
2022/10/02 03:36:16;;;;;;;3.05;2.60;;;;;;;13.82;100.00;98162.91;1681105;85;21073;-77
2022/10/02 03:38:42;;;;;;;5.00;2.50;;;;;;;13.82;100.00;98167.73;1681438;85;21114;-76
2022/10/02 03:41:09;;;;;;;3.50;2.60;;;;;;;13.85;100.00;98182.52;1681040;85;21118;-77
2022/10/02 03:43:36;;;;;;;3.77;2.15;;;;;;;13.88;100.00;98174.38;1681280;84;21051;-77
2022/10/02 03:46:02;;;;;;;3.65;2.50;;;;;;;13.89;99.99;98160.22;1681167;85;21182;-77
2022/10/02 03:48:29;;;;;;;4.42;2.65;;;;;;;13.90;99.97;98150.00;1681149;85;21075;-77
2022/10/02 03:50:56;;;;;;;9.23;2.15;;;;;;;13.90;99.99;98167.19;1681232;85;21573;-76
2022/10/02 03:53:24;;;;;;;3.40;2.02;;;;;;;13.92;99.95;98163.98;1681107;85;20960;-75
2022/10/02 03:56:05;;;;;;;5.62;2.72;;;;;;;13.90;100.00;98155.28;1681484;85;21137;-77
2022/10/02 03:58:32;;;;;;;7.92;2.37;;;;;;;13.87;100.00;98140.50;1681053;84;21830;-77
2022/10/02 04:01:32;;;;;;;2.52;2.33;;;;;;;13.86;100.00;98139.28;1681115;85;21066;-77
2022/10/02 04:04:16;;;;;;;3.90;2.10;;;;;;;13.86;100.00;98132.67;1680796;85;21522;-77
2022/10/02 04:06:51;;;;;;;5.05;2.62;;;;;;;13.85;100.00;98136.25;1681678;85;22099;-77
2022/10/02 04:09:42;;;;;;;4.72;2.40;;;;;;;13.81;100.00;98131.66;1681092;84;21146;-78
2022/10/02 04:12:12;;;;;;;5.30;2.70;;;;;;;13.80;100.00;98128.67;1681027;85;21153;-76
2022/10/02 04:15:15;;;;;;;4.22;2.55;;;;;;;13.84;100.00;98118.72;1681119;85;21078;-79
2022/10/02 04:18:01;;;;;;;4.35;2.47;;;;;;;13.82;100.00;98114.00;1655702;85;21082;-78
2022/10/02 04:20:34;;;;;;;5.35;2.62;;;;;;;13.82;100.00;98120.61;1681098;85;21109;-77
2022/10/02 04:23:18;;;;;;;3.15;2.60;;;;;;;13.81;100.00;98113.16;1681081;85;21529;-76
2022/10/02 04:25:49;;;;;;;4.08;2.70;;;;;;;13.80;100.00;98106.66;1681300;84;21200;-76
2022/10/02 04:28:20;;;;;;;8.00;3.20;;;;;;;13.82;100.00;98096.81;1680943;85;21656;-77
2022/10/02 04:30:47;;;;;;;4.30;2.67;;;;;;;13.81;100.00;98096.46;1680529;85;21016;-76
2022/10/02 04:33:17;;;;;;;5.42;2.40;;;;;;;13.83;100.00;98099.34;1681330;85;21058;-76
2022/10/02 04:36:20;;;;;;;3.00;2.67;;;;;;;13.86;100.00;98091.70;1680922;85;21049;-75
2022/10/02 04:39:27;;;;;;;3.12;2.85;;;;;;;13.87;100.00;98088.08;1681249;85;21158;-76
2022/10/02 04:42:31;;;;;;;3.75;2.40;;;;;;;13.87;100.00;98076.18;1647288;85;21142;-75
2022/10/02 04:45:06;;;;;;;5.47;2.65;;;;;;;13.87;100.00;98058.54;1681075;84;21168;-77
2022/10/02 04:48:15;;;;;;;4.12;2.70;;;;;;;13.89;100.00;98040.76;1666414;85;21185;-76
2022/10/02 04:51:02;;;;;;;5.55;2.77;;;;;;;13.89;100.00;98031.99;1681135;85;21070;-76
2022/10/02 04:53:53;;;;;;;4.58;2.60;;;;;;;13.89;100.00;98031.99;1681239;85;21124;-77
2022/10/02 04:57:11;;;;;;;3.35;2.52;;;;;;;13.89;100.00;98030.19;1680977;85;21543;-76
2022/10/02 05:00:04;;;;;;;4.40;3.35;;;;;;;13.89;100.00;98034.15;1681289;84;21556;-75
2022/10/02 05:02:58;;;;;;;3.62;3.30;;;;;;;13.88;100.00;98024.52;1680964;85;21144;-75
2022/10/02 05:05:45;;;;;;;3.95;3.12;;;;;;;13.89;100.00;98019.61;1681157;85;21149;-75
2022/10/02 05:08:35;;;;;;;4.33;3.20;;;;;;;13.91;100.00;98007.60;1681156;84;21886;-73
2022/10/02 05:11:13;;;;;;;6.12;3.50;;;;;;;13.91;100.00;98000.98;1680872;85;21015;-76
2022/10/02 05:14:26;;;;;;;10.45;3.33;;;;;;;13.89;100.00;97998.94;1680973;85;21062;-76
2022/10/02 05:17:30;;;;;;;10.75;4.33;;;;;;;13.89;100.00;97998.45;1681289;84;21027;-75
2022/10/02 05:20:29;;;;;;;4.75;3.55;;;;;;;13.92;100.00;97998.73;1633147;85;21147;-76
2022/10/02 05:23:21;;;;;;;4.67;3.77;;;;;;;13.93;100.00;98000.39;1681266;84;21235;-74
2022/10/02 05:26:19;;;;;;;3.55;3.25;;;;;;;13.93;100.00;98012.30;1689431;84;21078;-76
2022/10/02 05:29:15;;;;;;;6.65;4.17;;;;;;;13.94;100.00;98038.62;1696462;84;21086;-77
2022/10/02 05:31:52;;;;;;;8.38;3.83;;;;;;;13.98;100.00;98046.34;1696694;84;21887;-76
2022/10/02 05:34:56;;;;;;;4.10;3.70;;;;;;;13.96;100.00;98033.23;1696161;84;21069;-77
2022/10/02 05:37:34;;;;;;;6.75;4.28;;;;;;;13.96;100.00;97997.53;1668115;86;21222;-75
2022/10/02 05:40:27;;;;;;;6.40;4.08;;;;;;;13.98;100.00;97992.14;1672587;84;21121;-75
2022/10/02 05:43:05;;;;;;;6.72;4.47;;;;;;;14.00;100.00;97987.58;1696651;84;21058;-74
2022/10/02 05:45:41;;;;;;;6.28;4.33;;;;;;;14.00;100.00;97983.12;1696434;84;21580;-75
2022/10/02 05:48:31;;;;;;;5.90;4.20;;;;;;;14.01;100.00;97983.50;1696872;84;21117;-76
2022/10/02 05:51:07;;;;;;;7.17;4.70;;;;;;;14.03;100.00;97978.94;1680141;84;21165;-77
2022/10/02 05:53:49;;;;;;;8.03;4.08;;;;;;;14.06;100.00;97981.36;1696461;84;21065;-77
2022/10/02 05:56:21;;;;;;;5.95;4.33;;;;;;;14.07;100.00;97975.58;1695834;84;21521;-76
2022/10/02 05:58:58;;;;;;;11.20;4.20;;;;;;;14.09;100.00;97975.84;1696589;84;21015;-75
2022/10/02 06:01:28;;;;;;;5.37;4.15;;;;;;;14.12;100.00;97962.41;1696375;84;21117;-76
2022/10/02 06:04:06;;;;;;;7.25;4.20;;;;;;;14.16;100.00;97962.18;1696634;84;21089;-77
2022/10/02 06:06:38;;;;;;;4.67;4.28;;;;;;;14.17;100.00;97955.45;1696309;84;21530;-76
2022/10/02 06:09:16;;;;;;;4.35;3.90;;;;;;;14.19;100.00;97953.98;1675347;84;21145;-79
2022/10/02 06:11:53;;;;;;;7.00;4.87;;;;;;;14.21;99.90;97936.23;1696445;84;21320;-75
2022/10/02 06:14:46;;;;;;;10.10;5.08;;;;;;;14.22;99.94;97940.09;1696810;84;20999;-75
2022/10/02 06:17:23;;;;;;;5.00;4.50;;;;;;;14.21;99.93;97935.73;1692193;84;21131;-76
2022/10/02 06:20:04;;;;;;;6.42;4.12;;;;;;;14.22;100.00;97940.54;1696343;84;21987;-76
2022/10/02 06:22:37;;;;;;;8.65;4.05;;;;;;;14.22;99.91;97941.41;1696528;84;21085;-76
2022/10/02 06:25:15;;;;;;;6.87;4.55;;;;;;;14.24;99.77;97943.91;1696478;84;21291;-76
2022/10/02 06:27:47;;;;;;;7.58;4.45;;;;;;;14.25;99.78;97937.67;1698676;84;21081;-75
2022/10/02 06:30:15;;;;;;;5.08;4.30;;;;;;;14.25;99.89;97934.53;1698554;84;21117;-76
2022/10/02 06:32:56;;;;;;;5.37;4.87;;;;;;;14.27;99.99;97935.75;1698162;84;21022;-75
2022/10/02 06:36:03;;;;;;;7.47;5.50;;;;;;;14.28;99.81;97934.80;1698491;84;21030;-75
2022/10/02 06:38:59;;;;;;;9.88;5.37;;;;;;;14.25;99.74;97908.58;1697241;84;21548;-74
2022/10/02 06:42:13;;;;;;;6.62;5.35;;;;;;;14.25;99.81;97917.83;1698253;84;21113;-75
2022/10/02 06:45:11;;;;;;;6.83;5.47;;;;;;;14.22;99.76;97914.09;1698317;84;21949;-76
2022/10/02 06:48:06;;;;;;;7.80;5.87;;;;;;;14.15;99.89;97912.87;1698415;84;21002;-74
2022/10/02 06:51:02;;;;;;;12.75;6.20;;;;;;;14.04;100.00;97907.91;1698557;84;21141;-75
2022/10/02 06:54:10;;;;;;;10.60;5.90;;;;;;;13.96;100.00;97905.48;1698125;84;21588;-75
2022/10/02 06:57:16;;;;;;;7.33;6.10;;;;;;;13.82;100.00;97901.19;1697956;84;21038;-76
2022/10/02 07:00:11;;;;;;;11.68;6.53;;;;;;;13.75;100.00;97901.66;1698569;84;21161;-75
2022/10/02 07:02:56;;;;;;;6.50;5.60;;;;;;;13.73;100.00;97903.58;1698408;84;21556;-74
2022/10/02 07:05:37;;;;;;;7.47;5.67;;;;;;;13.70;100.00;97895.88;1697949;84;21477;-76
2022/10/02 07:08:36;;;;;;;6.20;5.65;;;;;;;13.70;100.00;97893.23;1698052;84;21080;-77
2022/10/02 07:11:18;;;;;;;17.60;7.08;;;;;;;13.69;100.00;97896.81;1698496;84;21061;-77
2022/10/02 07:14:14;;;;;;;12.05;8.40;;;;;;;13.67;100.00;97885.52;1698640;84;21164;-77
2022/10/02 07:17:15;;;;;;;9.48;8.30;;;;;;;13.67;100.00;97889.48;1698720;84;21065;-77
2022/10/02 07:20:15;;;;;;;12.53;8.63;;;;;;;13.65;100.00;97887.89;1698677;84;21050;-77
2022/10/02 07:23:05;;;;;;;13.38;6.72;;;;;;;13.59;100.00;97887.88;1698553;84;21060;-76
2022/10/02 07:26:00;;;;;;;10.68;6.42;;;;;;;13.56;100.00;97888.09;1698475;84;21026;-77
2022/10/02 07:28:42;;;;;;;9.30;6.12;;;;;;;13.53;100.00;97889.63;1698818;84;22114;-77
2022/10/02 07:31:50;;;;;;;6.55;5.40;;;;;;;13.52;100.00;97887.97;1698742;84;21102;-77
2022/10/02 07:34:40;;;;;;;11.30;5.67;;;;;;;13.47;100.00;97882.17;1698535;84;22278;-77
2022/10/02 07:37:52;;;;;;;8.38;6.10;;;;;;;13.48;100.00;97886.48;1698747;84;21172;-77
2022/10/02 07:40:42;;;;;;;8.00;6.78;;;;;;;13.49;100.00;97884.22;1698628;84;21062;-75
2022/10/02 07:43:40;;;;;;;8.55;6.60;;;;;;;13.48;100.00;97889.13;1698812;84;21510;-77
2022/10/02 07:46:18;;;;;;;7.67;6.87;;;;;;;13.45;100.00;97880.09;1697953;84;21108;-78
2022/10/02 07:49:28;;;;;;;10.82;8.28;;;;;;;13.43;100.00;97888.16;1699019;84;21022;-77
2022/10/02 07:52:25;;;;;;;8.98;8.00;;;;;;;13.43;100.00;97883.33;1698799;84;21573;-76
2022/10/02 07:55:14;;;;;;;10.25;8.28;;;;;;;13.41;100.00;97876.84;1697360;84;21137;-77
2022/10/02 07:58:12;;;;;;;9.98;8.45;;;;;;;13.41;100.00;97873.36;1687732;84;21248;-77
2022/10/02 08:01:04;;;;;;;8.98;8.00;;;;;;;13.41;100.00;97873.36;1698494;84;21070;-77
2022/10/02 08:03:42;;;;;;;13.32;8.78;;;;;;;13.40;100.00;97855.81;1694845;84;22110;-77
2022/10/02 08:06:09;;;;;;;10.40;9.23;;;;;;;13.40;100.00;97850.53;1696379;84;20990;-77
2022/10/02 08:08:50;;;;;;;10.75;9.20;;;;;;;13.40;100.00;97847.43;1698560;84;21100;-76
2022/10/02 08:11:31;;;;;;;11.90;8.58;;;;;;;13.38;100.00;97838.30;1698834;84;22082;-76
2022/10/02 08:14:24;;;;;;;15.58;8.38;;;;;;;13.36;100.00;97832.28;1698585;84;21121;-76
2022/10/02 08:16:53;;;;;;;12.80;8.65;;;;;;;13.36;100.00;97827.00;1659923;86;21073;-76
2022/10/02 08:19:45;;;;;;;8.18;7.20;;;;;;;13.34;100.00;97822.28;1689250;84;21006;-76
2022/10/02 08:22:23;;;;;;;12.20;7.33;;;;;;;13.33;100.00;97819.30;1699018;84;21132;-76
2022/10/02 08:25:03;;;;;;;9.08;7.50;;;;;;;13.35;100.00;97816.55;1698552;84;21240;-77
2022/10/02 08:27:57;;;;;;;7.70;6.92;;;;;;;13.38;100.00;97818.94;1696878;84;21532;-76
2022/10/02 08:30:23;;;;;;;7.78;6.97;;;;;;;13.43;100.00;97811.55;1696682;84;21105;-77
2022/10/02 08:32:50;;;;;;;7.80;7.00;;;;;;;13.50;100.00;97811.45;1696960;84;21050;-76
2022/10/02 08:35:18;;;;;;;8.18;6.67;;;;;;;13.57;100.00;97806.56;1696608;84;21085;-79
2022/10/02 08:38:20;;;;;;;6.95;6.35;;;;;;;13.64;100.00;97811.74;1696750;84;21148;-76
2022/10/02 08:41:38;;;;;;;6.40;5.80;;;;;;;13.73;100.00;97808.42;1693416;84;21080;-78
2022/10/02 08:44:22;;;;;;;6.35;4.72;;;;;;;13.77;100.00;97809.03;1696627;84;21147;-77
2022/10/02 08:47:17;;;;;;;4.53;4.12;;;;;;;13.79;100.00;97817.69;1684089;84;21093;-77
2022/10/02 08:50:04;;;;;;;5.12;3.70;;;;;;;13.80;100.00;97802.66;1696872;84;21055;-76
2022/10/02 08:52:55;;;;;;;4.22;3.80;;;;;;;13.84;100.00;97797.52;1696429;84;21253;-76
2022/10/02 08:56:02;;;;;;;3.67;3.37;;;;;;;13.86;100.00;97792.46;1696709;84;21133;-78
2022/10/02 08:58:44;;;;;;;3.90;3.60;;;;;;;13.88;100.00;97800.28;1696600;84;21514;-77
2022/10/02 09:01:50;;;;;;;3.10;2.90;;;;;;;13.88;100.00;97808.22;1697063;84;21074;-77
2022/10/02 09:04:37;;;;;;;2.90;2.70;;;;;;;13.88;100.00;97804.25;1696917;84;21006;-77
2022/10/02 09:07:31;;;;;;;4.15;2.72;;;;;;;13.85;100.00;97800.51;1696380;84;21116;-77
2022/10/02 09:10:44;;;;;;;2.77;2.58;;;;;;;13.86;100.00;97802.20;1696707;84;21053;-77
2022/10/02 09:13:39;;;;;;;2.00;1.90;;;;;;;13.88;100.00;97798.96;1696903;84;21667;-78
2022/10/02 09:16:11;;;;;;;2.20;2.10;;;;;;;13.90;100.00;97799.22;1688156;84;21077;-77
2022/10/02 09:19:02;;;;;;;2.40;2.12;;;;;;;13.91;100.00;97800.89;1696729;84;21224;-78
2022/10/02 09:21:56;;;;;;;1.80;1.70;;;;;;;13.92;100.00;97801.27;1696377;84;21073;-76
2022/10/02 09:24:58;;;;;;;1.87;1.77;;;;;;;13.93;100.00;97808.70;1696360;84;21473;-76
2022/10/02 09:27:54;;;;;;;3.02;1.70;;;;;;;13.94;100.00;97797.19;1689291;84;21094;-76
2022/10/02 09:31:02;;;;;;;1.32;1.32;;;;;;;13.95;100.00;97806.78;1681163;85;21078;-75
2022/10/02 09:34:24;;;;;;;1.40;1.22;;;;;;;13.96;100.00;97808.48;1681000;85;21022;-78
2022/10/02 09:37:15;;;;;;;1.52;1.40;;;;;;;13.95;100.00;97816.03;1681327;84;21120;-77
2022/10/02 09:40:14;;;;;;;1.90;1.50;;;;;;;13.90;100.00;97811.58;1680863;85;21134;-75
2022/10/02 09:43:01;;;;;;;1.30;1.20;;;;;;;13.89;100.00;97809.91;1681168;85;21652;-78
2022/10/02 09:45:59;;;;;;;1.52;1.42;;;;;;;13.87;100.00;97808.70;1681017;85;20988;-78
2022/10/02 09:49:14;;;;;;;2.42;1.30;;;;;;;13.91;100.00;97817.24;1680968;84;21077;-74
2022/10/02 09:52:15;;;;;;;1.12;1.02;;;;;;;13.95;100.00;97829.25;1681188;85;21137;-76
2022/10/02 09:55:06;;;;;;;3.42;1.10;;;;;;;14.02;100.00;97805.84;1681283;85;21106;-77
2022/10/02 09:58:09;;;;;;;1.07;1.07;;;;;;;14.15;100.00;97815.02;1681060;85;21035;-76
2022/10/02 10:01:02;;;;;;;1.05;0.95;;;;;;;14.35;100.00;97797.61;1681343;84;21159;-78
2022/10/02 10:03:56;;;;;;;1.17;1.00;;;;;;;14.58;100.00;97809.88;1680853;85;21050;-77
2022/10/02 10:06:45;;;;;;;2.70;1.10;;;;;;;14.71;100.00;97801.86;1681173;84;21593;-77
2022/10/02 10:09:33;;;;;;;2.08;1.10;;;;;;;14.76;100.00;97797.50;1681150;84;21074;-77
2022/10/02 10:12:43;;;;;;;1.10;1.10;;;;;;;14.75;100.00;97805.94;1671094;85;21099;-78
2022/10/02 10:15:47;;;;;;;1.00;1.00;;;;;;;14.71;100.00;97806.30;1681362;85;21063;-78
2022/10/02 10:18:38;;;;;;;3.77;2.08;;;;;;;14.66;100.00;97806.68;1681255;85;21091;-76
2022/10/02 10:21:17;;;;;;;2.08;1.55;;;;;;;14.60;100.00;97803.19;1681275;85;21154;-78
2022/10/02 10:23:50;;;;;;;1.57;1.30;;;;;;;14.50;100.00;97815.77;1681348;84;21082;-77
2022/10/02 10:26:42;;;;;;;1.50;1.40;;;;;;;14.40;100.00;97802.06;1680709;85;21113;-78
2022/10/02 10:29:49;;;;;;;1.60;1.50;;;;;;;14.31;100.00;97802.30;1680824;85;21063;-76
2022/10/02 10:33:12;;;;;;;2.95;2.15;;;;;;;14.24;100.00;97809.00;1680899;84;21589;-77
2022/10/02 10:36:04;;;;;;;1.67;1.10;;;;;;;14.17;100.00;97818.38;1681256;85;21153;-79
2022/10/02 10:39:15;;;;;;;1.52;0.88;;;;;;;14.00;100.00;97839.00;1680088;85;21095;-82
2022/10/02 10:42:13;;;;;;;2.72;1.00;;;;;;;13.74;100.00;97814.05;1680909;84;21225;-79
2022/10/02 10:45:23;;;;;;;0.75;0.75;;;;;;;13.49;100.00;97841.95;1680420;85;21110;-77
2022/10/02 10:48:26;;;;;;;2.22;0.93;;;;;;;13.26;100.00;97843.09;1675868;85;21447;-76
2022/10/02 10:51:20;;;;;;;1.02;0.80;;;;;;;13.00;100.00;97846.30;1681167;85;21259;-76
2022/10/02 10:54:10;;;;;;;5.07;0.83;;;;;;;12.78;100.00;97852.27;1681574;85;21153;-77
2022/10/02 10:56:44;;;;;;;2.85;0.80;;;;;;;12.62;100.00;97853.34;1681348;84;22564;-77
2022/10/02 10:59:45;;;;;;;5.47;1.00;;;;;;;12.53;100.00;97851.33;1662876;85;21604;-78
2022/10/02 11:02:52;;;;;;;1.87;0.80;;;;;;;12.45;100.00;97858.44;1681243;85;21638;-79
2022/10/02 11:05:52;;;;;;;1.00;1.00;;;;;;;12.36;100.00;97865.68;1681159;85;21149;-78
2022/10/02 11:08:36;;;;;;;1.37;1.20;;;;;;;12.24;100.00;97859.45;1680991;85;21054;-77
2022/10/02 11:11:30;;;;;;;2.00;1.20;;;;;;;12.11;100.00;97853.32;1681317;85;21684;-76
2022/10/02 11:14:30;;;;;;;1.15;1.10;;;;;;;12.05;100.00;97876.99;1681197;84;21063;-78
2022/10/02 11:17:34;;;;;;;9.98;1.00;;;;;;;11.98;100.00;97876.17;1681268;85;21142;-76
2022/10/02 11:20:28;;;;;;;1.22;0.90;;;;;;;11.94;100.00;97869.44;1681279;85;21161;-76
2022/10/02 11:23:52;;;;;;;1.12;1.10;;;;;;;11.88;100.00;97871.50;1681487;84;21512;-78
2022/10/02 11:26:31;;;;;;;1.45;0.90;;;;;;;11.80;100.00;97868.52;1681352;84;21426;-76
2022/10/02 11:29:33;;;;;;;2.50;1.10;;;;;;;11.74;100.00;97865.45;1694010;84;21046;-77
2022/10/02 11:32:27;;;;;;;1.47;1.10;;;;;;;11.71;100.00;97867.80;1625296;88;21113;-78
2022/10/02 11:35:26;;;;;;;4.72;1.20;;;;;;;11.66;100.00;97897.55;1688904;84;21114;-77
2022/10/02 11:38:28;;;;;;;1.30;1.10;;;;;;;11.62;100.00;97906.61;1696437;84;21077;-77
2022/10/02 11:41:15;;;;;;;5.75;1.85;;;;;;;11.55;100.00;97893.44;1696702;84;21509;-77
2022/10/02 11:44:15;;;;;;;1.22;1.00;;;;;;;11.46;100.00;97898.84;1696274;84;21010;-76
2022/10/02 11:46:56;;;;;;;1.62;1.10;;;;;;;11.38;100.00;97868.19;1696884;84;21080;-76
2022/10/02 11:49:40;;;;;;;1.70;1.20;;;;;;;11.31;100.00;97885.72;1696458;84;22018;-77
2022/10/02 11:52:36;;;;;;;0.90;0.90;;;;;;;11.24;100.00;97909.89;1697048;84;21085;-77
2022/10/02 11:55:27;;;;;;;2.17;1.00;;;;;;;11.14;100.00;97884.61;1696551;84;21603;-76
2022/10/02 11:58:03;;;;;;;1.35;1.25;;;;;;;11.06;100.00;97883.80;1696228;84;21053;-76
2022/10/02 12:01:04;;;;;;;2.15;1.67;;;;;;;10.99;100.00;97893.00;1696524;84;21006;-77
2022/10/02 12:03:57;;;;;;;2.92;1.20;;;;;;;10.91;100.00;97879.47;1697051;84;21647;-76
2022/10/02 12:07:04;;;;;;;1.12;1.05;;;;;;;10.83;100.00;97884.39;1696671;84;21572;-75
2022/10/02 12:10:00;;;;;;;1.35;1.25;;;;;;;10.78;100.00;97876.77;1696985;84;21144;-76
2022/10/02 12:12:42;;;;;;;1.12;0.93;;;;;;;10.74;100.00;97874.80;1696388;84;22266;-75
2022/10/02 12:15:43;;;;;;;1.02;1.02;;;;;;;10.72;100.00;97881.08;1696792;84;21129;-75
2022/10/02 12:18:24;;;;;;;1.72;1.10;;;;;;;10.69;100.00;97875.56;1691959;84;21243;-76
2022/10/02 12:27:35;;;;;;;1.10;1.10;;;;;;;10.65;100.00;97883.72;1697296;84;21089;-76
2022/10/02 12:30:18;;;;;;;10.43;1.98;;;;;;;10.58;100.00;97877.98;1695228;84;21093;-77
2022/10/02 12:33:25;;;;;;;4.33;1.20;;;;;;;10.56;100.00;97866.73;1696748;84;21712;-76
2022/10/02 12:36:05;;;;;;;1.65;1.10;;;;;;;10.54;100.00;97856.74;1696508;84;21157;-78
2022/10/02 12:38:51;;;;;;;1.75;1.10;;;;;;;10.52;100.00;97873.96;1696418;84;21003;-76
2022/10/02 12:41:39;;;;;;;1.07;1.07;;;;;;;10.54;100.00;97865.50;1695955;84;21034;-75
2022/10/02 12:44:46;;;;;;;1.10;1.00;;;;;;;10.55;99.71;97872.43;1696752;84;21081;-76
2022/10/02 12:47:34;;;;;;;0.88;0.80;;;;;;;10.56;98.83;97869.36;1695947;84;21311;-76
2022/10/02 12:50:20;;;;;;;3.42;0.88;;;;;;;10.55;97.49;97883.43;1697033;84;21074;-78
2022/10/02 12:53:33;;;;;;;0.65;0.65;;;;;;;10.51;97.60;97884.57;1696518;84;21133;-76
2022/10/02 12:56:31;;;;;;;1.00;0.75;;;;;;;10.47;96.09;97864.16;1696454;84;21109;-76
2022/10/02 12:59:36;;;;;;;0.75;0.75;;;;;;;10.45;95.82;97883.61;1695838;84;21605;-76
2022/10/02 13:02:55;;;;;;;0.75;0.75;;;;;;;10.47;96.27;97872.53;1696686;84;21251;-77
2022/10/02 13:06:13;;;;;;;1.05;0.80;;;;;;;10.48;95.67;97874.23;1696459;84;21085;-77
2022/10/02 13:09:04;;;;;;;0.68;0.60;;;;;;;10.48;95.60;97868.97;1696464;84;20971;-76